CheckWX is a tool to help pilots better visualize weather data.  It is not intended as a substitute for an official pre-flight weather briefing.

17:20:56 UTC

USTR TAF
Roshchino International
Tyumen
TAF USTR 181355Z 1815/1915 28003G08MPS 9999 BKN020 BECMG 1819/1821 24004MPS TEMPO 1819/1901 4000 BR SCT010 BKN020 BECMG 1901/1903 27006G14MPS TEMPO 1906/1912 -SHRA SCT020CB

Jun-18@
15:00 UTC

Jun-18 @ 15:00 UTC

Jun-18@
19:00 UTC

Jun-18 @ 19:00 UTC

TAF USTR 181355Z 1815/1915 28003G08MPS 9999 BKN020
Wind
  • 280° at 6 KTS
  • {Gusting to 16 KTS
Cloud Levels
  • Broken at 2,000' AGL

Jun-18@
19:00 UTC

Jun-18 @ 19:00 UTC

Jun-19@
01:00 UTC

Jun-19 @ 01:00 UTC

BECMG 1819/1821 24004MPS

Becoming

Becoming Conditions expected by Tue, Jun 18, 2019 @ 21:00 UTC

Wind
  • 240° at 8 KTS
Cloud Levels
  • Broken at 2,000' AGL

Jun-18@
19:00 UTC

Jun-18 @ 19:00 UTC

Jun-19@
01:00 UTC

Jun-19 @ 01:00 UTC

TEMPO 1819/1901 4000 BR SCT010 BKN020

Temporary

Temporary Changes expected for less than half the time period

Conditions
Mist
Cloud Levels
  • Scattered at 1,000' AGL
  • Broken at 2,000' AGL

Jun-19@
01:00 UTC

Jun-19 @ 01:00 UTC

Jun-19@
15:00 UTC

Jun-19 @ 15:00 UTC

BECMG 1901/1903 27006G14MPS

Becoming

Becoming Conditions expected by Wed, Jun 19, 2019 @ 03:00 UTC

Wind
  • 270° at 12 KTS
  • {Gusting to 27 KTS
Cloud Levels
  • Broken at 2,000' AGL

Jun-19@
06:00 UTC

Jun-19 @ 06:00 UTC

Jun-19@
12:00 UTC

Jun-19 @ 12:00 UTC

TEMPO 1906/1912 -SHRA SCT020CB

Temporary

Temporary Changes expected for less than half the time period

Conditions
Light Rain
Cloud Levels
  • Scattered at 2,000' AGL